Terminal Aerodrome Forecast
Issued by NWS Upton, NY

Home | Current Version | Previous Version | Text Only | Print | Product List | Glossary On
Versions: 1 2 3 4 5 6 7 8 9 10 11 12 13 14 15 16 17 18 19 20 21 22 23 24 25 26
270
FTUS41 KOKX 072023 AAA
TAFJFK
TAF AMD
KJFK 072023Z 0720/0824 08007KT P6SM FEW050 BKN250
     FM072200 05009KT P6SM BKN250
     FM080300 04011KT P6SM OVC250
     FM080600 03014G21KT P6SM SCT020 OVC200
     FM081000 02018G25KT 5SM -SN BR BKN015
     FM081300 01018G25KT 1SM -SN BKN007
     FM082000 01010G16KT 3SM -SN SCT007 BKN015=

USA.gov is the U.S. government's official web portal to all federal, state and local government web resources and services.